createdAt,value
2023-03-22T00:01:19.449Z,96338.75
2023-03-22T00:03:47.821Z,96344.84
2023-03-22T00:06:16.339Z,96344.06
2023-03-22T00:08:44.492Z,96338.81
2023-03-22T00:11:12.821Z,96343.66
2023-03-22T00:13:42.935Z,96336.34
2023-03-22T00:16:10.955Z,96335.50
2023-03-22T00:18:37.985Z,96331.44
2023-03-22T00:21:05.970Z,96328.84
2023-03-22T00:23:32.913Z,96327.44
2023-03-22T00:25:59.801Z,96323.81
2023-03-22T00:28:26.759Z,96325.06
2023-03-22T00:31:00.885Z,96328.31
2023-03-22T00:33:29.663Z,96331.38
2023-03-22T00:36:06.704Z,96320.25
2023-03-22T00:38:44.957Z,96317.44
2023-03-22T00:41:18.823Z,96316.22
2023-03-22T00:43:47.663Z,96326.53
2023-03-22T00:46:17.174Z,96316.22
2023-03-22T00:48:44.112Z,96310.94
2023-03-22T00:51:13.512Z,96316.63
2023-03-22T00:53:43.009Z,96310.13
2023-03-22T00:56:16.605Z,96307.72
2023-03-22T00:58:43.841Z,96313.78
2023-03-22T01:01:14.592Z,96312.38
2023-03-22T01:03:43.656Z,96307.28
2023-03-22T01:06:11.623Z,96306.50
2023-03-22T01:08:39.425Z,96291.91
2023-03-22T01:11:07.717Z,96297.78
2023-03-22T01:13:37.769Z,96289.25
2023-03-22T01:16:06.699Z,96288.25
2023-03-22T01:18:34.031Z,96304.06
2023-03-22T01:21:01.277Z,96310.13
2023-03-22T01:23:28.585Z,96321.91
2023-03-22T01:25:55.547Z,96312.78
2023-03-22T01:28:22.820Z,96313.38
2023-03-22T01:30:50.983Z,96306.47
2023-03-22T01:33:18.072Z,96305.88
2023-03-22T01:35:45.226Z,96292.72
2023-03-22T01:38:12.526Z,96293.94
2023-03-22T01:40:39.761Z,96294.13
2023-03-22T01:43:15.663Z,96299.00
2023-03-22T01:46:00.964Z,96291.09
2023-03-22T01:48:42.094Z,96281.97
2023-03-22T01:51:15.262Z,96281.31
2023-03-22T01:53:55.358Z,96281.31
2023-03-22T01:56:26.924Z,96284.16
2023-03-22T01:58:55.158Z,96282.13
2023-03-22T02:01:23.290Z,96281.28
2023-03-22T02:04:15.492Z,96273.78
2023-03-22T02:06:42.749Z,96273.16
2023-03-22T02:09:12.890Z,96267.50
2023-03-22T02:11:50.181Z,96277.81
2023-03-22T02:14:58.918Z,96270.34
2023-03-22T02:17:37.591Z,96263.44
2023-03-22T02:20:28.181Z,96267.53
2023-03-22T02:23:47.879Z,96269.97
2023-03-22T02:26:59.452Z,96275.31
2023-03-22T02:30:02.958Z,96268.41
2023-03-22T02:32:45.549Z,96280.56
2023-03-22T02:35:38.648Z,96282.16
2023-03-22T02:38:19.989Z,96270.81
2023-03-22T02:41:06.236Z,96278.34
2023-03-22T02:44:23.053Z,96278.16
2023-03-22T02:47:06.665Z,96270.44
2023-03-22T02:49:49.366Z,96271.66
2023-03-22T02:52:35.904Z,96273.69
2023-03-22T02:55:40.283Z,96270.06
2023-03-22T02:58:39.352Z,96283.00
2023-03-22T03:01:10.494Z,96270.06
2023-03-22T03:03:39.555Z,96268.00
2023-03-22T03:06:15.134Z,96271.63
2023-03-22T03:08:44.213Z,96270.22
2023-03-22T03:11:11.045Z,96280.78
2023-03-22T03:13:38.208Z,96268.44
2023-03-22T03:16:07.854Z,96278.97
2023-03-22T03:18:54.544Z,96277.34
2023-03-22T03:21:30.308Z,96264.78
2023-03-22T03:24:13.375Z,96263.16
2023-03-22T03:27:06.733Z,96263.56
2023-03-22T03:30:00.204Z,96263.16
2023-03-22T03:32:35.512Z,96263.56
2023-03-22T03:35:25.379Z,96269.06
2023-03-22T03:37:57.659Z,96271.25
2023-03-22T03:40:31.263Z,96272.47
2023-03-22T03:43:02.898Z,96266.19
2023-03-22T03:45:30.814Z,96268.00
2023-03-22T03:48:01.388Z,96269.44
2023-03-22T03:50:28.621Z,96267.81
2023-03-22T03:52:56.339Z,96267.63
2023-03-22T03:55:24.332Z,96278.97
2023-03-22T03:57:51.232Z,96265.19
2023-03-22T04:00:19.232Z,96278.97
2023-03-22T04:02:46.122Z,96272.09
2023-03-22T04:05:13.629Z,96278.56
2023-03-22T04:07:41.192Z,96273.72
2023-03-22T04:10:08.655Z,96268.47
2023-03-22T04:12:35.880Z,96261.56
2023-03-22T04:15:02.751Z,96267.66
2023-03-22T04:17:29.592Z,96264.63
2023-03-22T04:19:56.757Z,96269.25
2023-03-22T04:22:25.043Z,96275.94
2023-03-22T04:24:51.886Z,96271.25
2023-03-22T04:27:20.868Z,96265.19
2023-03-22T04:29:51.115Z,96269.44
2023-03-22T04:32:19.192Z,96273.72
2023-03-22T04:34:49.012Z,96264.81
2023-03-22T04:37:16.647Z,96262.38
2023-03-22T04:39:43.805Z,96255.47
2023-03-22T04:42:11.219Z,96257.09
2023-03-22T04:44:38.111Z,96261.13
2023-03-22T04:47:04.967Z,96260.53
2023-03-22T04:49:31.952Z,96259.31
2023-03-22T04:51:59.163Z,96257.47
2023-03-22T04:54:26.102Z,96257.44
2023-03-22T04:56:52.961Z,96254.81
2023-03-22T04:59:20.526Z,96248.09
2023-03-22T05:01:48.820Z,96251.66
2023-03-22T05:04:19.787Z,96251.25
2023-03-22T05:06:47.021Z,96260.09
2023-03-22T05:09:14.266Z,96262.69
2023-03-22T05:11:41.661Z,96264.09
2023-03-22T05:14:09.302Z,96270.56
2023-03-22T05:16:36.463Z,96271.38
2023-03-22T05:19:03.474Z,96264.91
2023-03-22T05:21:36.752Z,96261.31
2023-03-22T05:24:04.406Z,96264.75
2023-03-22T05:26:31.404Z,96267.78
2023-03-22T05:28:58.246Z,96264.53
2023-03-22T05:31:25.214Z,96265.78
2023-03-22T05:33:52.854Z,96272.81
2023-03-22T05:36:22.975Z,96271.81
2023-03-22T05:38:50.538Z,96277.06
2023-03-22T05:41:17.513Z,96278.22
2023-03-22T05:43:45.073Z,96281.91
2023-03-22T05:46:12.756Z,96284.34
2023-03-22T05:48:41.057Z,96276.94
2023-03-22T05:51:10.135Z,96276.41
2023-03-22T05:53:37.248Z,96278.88
2023-03-22T05:56:04.440Z,96272.00
2023-03-22T05:58:33.825Z,96279.69
2023-03-22T06:01:13.098Z,96277.72
2023-03-22T06:03:40.252Z,96272.50
2023-03-22T06:06:13.612Z,96280.78
2023-03-22T06:08:40.917Z,96276.56
2023-03-22T06:11:08.673Z,96279.59
2023-03-22T06:13:35.554Z,96272.47
2023-03-22T06:16:04.925Z,96272.06
2023-03-22T06:18:33.033Z,96275.22
2023-03-22T06:21:00.748Z,96272.81
2023-03-22T06:23:28.194Z,96280.44
2023-03-22T06:25:55.419Z,96265.22
2023-03-22T06:28:22.286Z,96270.22
2023-03-22T06:30:49.141Z,96280.00
2023-03-22T06:33:15.959Z,96274.78
2023-03-22T06:35:42.927Z,96272.59
2023-03-22T06:38:09.855Z,96279.22
2023-03-22T06:40:36.688Z,96274.72
2023-03-22T06:43:07.028Z,96280.19
2023-03-22T06:45:34.380Z,96281.38
2023-03-22T06:48:01.637Z,96282.38
2023-03-22T06:50:29.474Z,96280.41
2023-03-22T06:52:56.715Z,96289.22
2023-03-22T06:55:24.242Z,96284.25
2023-03-22T06:57:54.673Z,96291.78
2023-03-22T07:00:21.805Z,96291.53
2023-03-22T07:02:49.987Z,96284.81
2023-03-22T07:05:18.640Z,96291.28
2023-03-22T07:07:46.341Z,96296.56
2023-03-22T07:10:13.484Z,96290.25
2023-03-22T07:12:40.630Z,96292.91
2023-03-22T07:15:08.351Z,96294.28
2023-03-22T07:17:35.396Z,96292.63
2023-03-22T07:20:03.847Z,96292.03
2023-03-22T07:22:30.916Z,96290.03
2023-03-22T07:25:00.598Z,96290.34
2023-03-22T07:27:28.501Z,96293.19
2023-03-22T07:29:55.322Z,96281.41
2023-03-22T07:32:22.252Z,96289.69
2023-03-22T07:34:49.176Z,96284.13
2023-03-22T07:37:16.007Z,96283.91
2023-03-22T07:39:42.862Z,96278.59
2023-03-22T07:42:09.676Z,96278.63
2023-03-22T07:44:36.669Z,96280.44
2023-03-22T07:47:03.561Z,96283.63
2023-03-22T07:49:31.599Z,96276.91
2023-03-22T07:51:58.530Z,96272.03
2023-03-22T07:54:33.301Z,96283.78
2023-03-22T07:57:01.328Z,96275.94
2023-03-22T07:59:28.748Z,96275.13
2023-03-22T08:01:55.919Z,96277.94
2023-03-22T08:04:23.346Z,96271.44
2023-03-22T08:06:51.345Z,96273.81
2023-03-22T08:09:18.364Z,96280.53
2023-03-22T08:11:45.326Z,96284.47
2023-03-22T08:14:12.165Z,96275.75
2023-03-22T08:16:39.285Z,96277.50
2023-03-22T08:19:06.671Z,96285.16
2023-03-22T08:21:33.516Z,96276.44
2023-03-22T08:24:00.396Z,96280.75
2023-03-22T08:26:27.820Z,96283.69
2023-03-22T08:28:54.810Z,96285.44
2023-03-22T08:31:22.400Z,96273.63
2023-03-22T08:33:49.461Z,96283.00
2023-03-22T08:36:22.672Z,96278.66
2023-03-22T08:38:50.377Z,96277.06
2023-03-22T08:41:17.219Z,96267.81
2023-03-22T08:43:44.250Z,96271.50
2023-03-22T08:46:11.141Z,96268.22
2023-03-22T08:48:38.480Z,96276.63
2023-03-22T08:51:06.698Z,96277.47
2023-03-22T08:53:33.610Z,96270.13
2023-03-22T08:56:01.781Z,96267.00
2023-03-22T08:58:28.616Z,96267.50
2023-03-22T09:00:55.755Z,96268.41
2023-03-22T09:03:24.846Z,96263.31
2023-03-22T09:05:51.837Z,96267.88
2023-03-22T09:08:19.909Z,96265.19
2023-03-22T09:10:51.982Z,96252.25
2023-03-22T09:13:19.826Z,96256.25
2023-03-22T09:15:47.021Z,96252.25
2023-03-22T09:18:15.252Z,96255.84
2023-03-22T09:20:43.070Z,96259.09
2023-03-22T09:23:10.279Z,96264.91
2023-03-22T09:25:37.194Z,96258.13
2023-03-22T09:28:04.849Z,96262.91
2023-03-22T09:30:31.824Z,96246.31
2023-03-22T09:32:58.644Z,96237.28
2023-03-22T09:35:25.962Z,96230.03
2023-03-22T09:37:54.413Z,96233.28
2023-03-22T09:40:31.585Z,96231.69
2023-03-22T09:43:06.643Z,96226.25
2023-03-22T09:45:43.893Z,96223.38
2023-03-22T09:48:19.438Z,96217.22
2023-03-22T09:50:52.491Z,96221.44
2023-03-22T09:53:22.149Z,96217.22
2023-03-22T09:56:31.275Z,96216.69
2023-03-22T09:59:06.848Z,96204.91
2023-03-22T10:02:01.377Z,96205.44
2023-03-22T10:05:04.113Z,96205.50
2023-03-22T10:07:56.365Z,96198.19
2023-03-22T10:10:24.832Z,96202.22
2023-03-22T10:13:00.190Z,96198.50
2023-03-22T10:15:40.035Z,96204.91
2023-03-22T10:18:12.799Z,96193.91
2023-03-22T10:21:09.744Z,96202.09
2023-03-22T10:23:55.703Z,96192.19
2023-03-22T10:26:31.969Z,96191.22
2023-03-22T10:29:12.366Z,96187.19
2023-03-22T10:31:42.977Z,96190.19
2023-03-22T10:34:31.006Z,96197.72
2023-03-22T10:37:01.183Z,96187.13
2023-03-22T10:39:41.129Z,96196.66
2023-03-22T10:42:15.951Z,96192.59
2023-03-22T10:44:48.077Z,96178.97
2023-03-22T10:47:44.900Z,96191.28
2023-03-22T10:50:28.640Z,96173.59
2023-03-22T10:53:18.520Z,96182.50
2023-03-22T10:55:45.542Z,96176.88
2023-03-22T10:58:21.603Z,96171.16
2023-03-22T11:00:56.868Z,96171.81
2023-03-22T11:03:52.951Z,96174.47
2023-03-22T11:06:39.167Z,96176.91
2023-03-22T11:09:22.418Z,96171.13
2023-03-22T11:11:56.209Z,96172.03
2023-03-22T11:14:42.360Z,96178.13
2023-03-22T11:17:14.492Z,96172.84
2023-03-22T11:19:53.177Z,96164.81
2023-03-22T11:22:36.487Z,96162.66
2023-03-22T11:25:07.562Z,96166.56
2023-03-22T11:27:34.576Z,96179.28
2023-03-22T11:30:24.714Z,96158.13
2023-03-22T11:33:20.953Z,96154.84
2023-03-22T11:35:58.152Z,96154.91
2023-03-22T11:38:36.449Z,96153.31
2023-03-22T11:41:42.737Z,96129.59
2023-03-22T11:44:15.832Z,96130.75
2023-03-22T11:46:57.864Z,96130.63
2023-03-22T11:49:50.220Z,96128.84
2023-03-22T11:52:23.019Z,96123.78
2023-03-22T11:54:51.784Z,96121.41
2023-03-22T11:57:25.229Z,96113.44
2023-03-22T12:00:02.048Z,96111.34
2023-03-22T12:02:41.821Z,96097.31
2023-03-22T12:05:23.206Z,96109.03
2023-03-22T12:08:09.650Z,96095.72
2023-03-22T12:10:44.057Z,96094.66
2023-03-22T12:13:22.562Z,96093.63
2023-03-22T12:15:55.831Z,96072.38
2023-03-22T12:18:57.625Z,96073.03
2023-03-22T12:21:24.529Z,96072.63
2023-03-22T12:24:01.030Z,96063.47
2023-03-22T12:26:30.928Z,96071.03
2023-03-22T12:29:08.193Z,96063.22
2023-03-22T12:31:45.856Z,96059.44
2023-03-22T12:34:19.795Z,96059.41
2023-03-22T12:36:51.658Z,96052.00
2023-03-22T12:39:26.928Z,96053.19
2023-03-22T12:41:57.947Z,96044.47
2023-03-22T12:44:55.522Z,96036.97
2023-03-22T12:47:43.504Z,96037.91
2023-03-22T12:50:33.388Z,96041.78
2023-03-22T12:53:02.445Z,96031.44
2023-03-22T12:55:49.647Z,96034.22
2023-03-22T12:58:22.923Z,96044.78
2023-03-22T13:01:12.286Z,96034.69
2023-03-22T13:03:52.568Z,96027.44
2023-03-22T13:06:31.860Z,96031.97
2023-03-22T13:09:08.830Z,96026.41
2023-03-22T13:11:36.275Z,96016.19
2023-03-22T13:14:03.295Z,96015.13
2023-03-22T13:16:52.072Z,96009.97
2023-03-22T13:19:36.406Z,96014.31
2023-03-22T13:22:28.954Z,96007.28
2023-03-22T13:25:12.589Z,95994.34
2023-03-22T13:27:45.548Z,96000.00
2023-03-22T13:30:20.362Z,95995.63
2023-03-22T13:33:10.410Z,95995.72
2023-03-22T13:36:23.853Z,95992.44
2023-03-22T13:39:03.051Z,95993.41
2023-03-22T13:41:33.056Z,95984.66
2023-03-22T13:44:04.820Z,95987.00
2023-03-22T13:46:36.308Z,95979.72
2023-03-22T13:49:03.419Z,95987.03
2023-03-22T13:51:32.695Z,95976.50
2023-03-22T13:54:07.279Z,95977.06
2023-03-22T13:57:00.964Z,95973.63
2023-03-22T13:59:27.912Z,95978.56
2023-03-22T14:02:04.909Z,95978.75
2023-03-22T14:04:53.086Z,95981.09
2023-03-22T14:07:22.766Z,95961.91
2023-03-22T14:09:58.753Z,95962.38
2023-03-22T14:12:44.565Z,95961.28
2023-03-22T14:15:19.157Z,95957.00
2023-03-22T14:17:56.945Z,95961.09
2023-03-22T14:20:29.973Z,95953.94
